createdAt,value
2018-06-23T00:00:31.716Z,98892.66
2018-06-23T00:03:01.061Z,98891.33
2018-06-23T00:05:30.397Z,98890.09
2018-06-23T00:07:59.721Z,98888.75
2018-06-23T00:10:29.055Z,98886.66
2018-06-23T00:12:58.464Z,98890.94
2018-06-23T00:15:27.816Z,98889.66
2018-06-23T00:17:57.186Z,98888.37
2018-06-23T00:20:26.500Z,98894.38
2018-06-23T00:22:55.845Z,98895.22
2018-06-23T00:25:30.518Z,98893.52
2018-06-23T00:27:59.835Z,98889.70
2018-06-23T00:30:29.203Z,98887.10
2018-06-23T00:32:58.576Z,98890.96
2018-06-23T00:35:27.896Z,98891.84
2018-06-23T00:37:57.280Z,98893.53
2018-06-23T00:40:26.644Z,98888.41
2018-06-23T00:42:56.133Z,98889.69
2018-06-23T00:45:25.453Z,98883.33
2018-06-23T00:47:54.832Z,98874.38
2018-06-23T00:50:24.160Z,98871.42
2018-06-23T00:52:53.504Z,98871.86
2018-06-23T00:55:22.851Z,98871.03
2018-06-23T00:57:52.173Z,98869.30
2018-06-23T01:00:21.540Z,98864.18
2018-06-23T01:02:50.895Z,98868.02
2018-06-23T01:05:21.112Z,98873.98
2018-06-23T01:07:50.480Z,98869.30
2018-06-23T01:10:19.812Z,98868.05
2018-06-23T01:12:49.139Z,98872.31
2018-06-23T01:15:18.512Z,98877.05
2018-06-23T01:17:47.844Z,98876.62
2018-06-23T01:20:17.159Z,98877.03
2018-06-23T01:22:46.539Z,98875.31
2018-06-23T01:25:15.832Z,98873.17
2018-06-23T01:27:45.191Z,98869.31
2018-06-23T01:30:14.521Z,98869.30
2018-06-23T01:32:43.837Z,98870.60
2018-06-23T01:35:13.204Z,98871.46
2018-06-23T01:37:42.556Z,98871.03
2018-06-23T01:40:11.894Z,98878.31
2018-06-23T01:42:41.217Z,98880.45
2018-06-23T01:45:10.552Z,98877.41
2018-06-23T01:47:40.011Z,98874.87
2018-06-23T01:50:09.303Z,98879.60
2018-06-23T01:52:38.626Z,98874.45
2018-06-23T01:55:07.966Z,98871.45
2018-06-23T01:57:37.300Z,98864.57
2018-06-23T02:00:06.625Z,98866.70
2018-06-23T02:02:35.961Z,98866.28
2018-06-23T02:05:05.373Z,98867.56
2018-06-23T02:07:34.748Z,98861.59
2018-06-23T02:10:04.137Z,98860.72
2018-06-23T02:12:33.452Z,98857.70
2018-06-23T02:15:08.048Z,98844.88
2018-06-23T02:17:42.978Z,98853.44
2018-06-23T02:20:17.620Z,98853.47
2018-06-23T02:22:52.108Z,98853.91
2018-06-23T02:26:29.536Z,98847.05
2018-06-23T02:29:03.995Z,98849.61
2018-06-23T02:31:38.669Z,98851.73
2018-06-23T02:34:13.127Z,98849.15
2018-06-23T02:36:42.606Z,98852.16
2018-06-23T02:39:11.949Z,98846.59
2018-06-23T02:41:41.301Z,98845.30
2018-06-23T02:44:10.637Z,98838.89
2018-06-23T02:46:39.948Z,98850.89
2018-06-23T02:49:09.281Z,98847.89
2018-06-23T02:51:38.608Z,98857.72
2018-06-23T02:54:07.942Z,98860.67
2018-06-23T02:56:37.276Z,98861.95
2018-06-23T02:59:06.639Z,98862.73
2018-06-23T03:01:35.948Z,98855.06
2018-06-23T03:04:05.405Z,98857.69
2018-06-23T03:06:34.779Z,98858.05
2018-06-23T03:09:04.632Z,98856.73
2018-06-23T03:11:33.963Z,98849.92
2018-06-23T03:14:03.309Z,98852.42
2018-06-23T03:16:32.648Z,98846.44
2018-06-23T03:19:01.997Z,98850.35
2018-06-23T03:21:31.332Z,98847.33
2018-06-23T03:24:00.848Z,98844.34
2018-06-23T03:26:30.244Z,98848.22
2018-06-23T03:28:59.565Z,98850.66
2018-06-23T03:31:28.908Z,98841.67
2018-06-23T03:33:58.257Z,98848.08
2018-06-23T03:36:27.571Z,98857.06
2018-06-23T03:38:56.973Z,98860.84
2018-06-23T03:41:26.316Z,98861.27
2018-06-23T03:43:55.659Z,98858.73
2018-06-23T03:46:24.981Z,98863.08
2018-06-23T03:48:54.543Z,98852.77
2018-06-23T03:51:23.853Z,98858.37
2018-06-23T03:53:53.176Z,98859.64
2018-06-23T03:56:23.068Z,98866.05
2018-06-23T03:58:52.805Z,98872.17
2018-06-23T04:01:22.176Z,98864.52
2018-06-23T04:03:51.523Z,98870.12
2018-06-23T04:06:20.855Z,98866.70
2018-06-23T04:08:50.224Z,98863.70
2018-06-23T04:11:19.560Z,98861.58
2018-06-23T04:13:48.891Z,98862.03
2018-06-23T04:16:18.246Z,98866.75
2018-06-23T04:18:52.012Z,98866.75
2018-06-23T04:21:21.496Z,98864.57
2018-06-23T04:23:50.817Z,98868.03
2018-06-23T04:26:20.266Z,98865.39
2018-06-23T04:28:49.623Z,98869.27
2018-06-23T04:31:19.040Z,98863.16
2018-06-23T04:33:48.355Z,98868.30
2018-06-23T04:36:17.695Z,98877.73
2018-06-23T04:38:47.016Z,98872.19
2018-06-23T04:41:16.384Z,98880.39
2018-06-23T04:43:45.736Z,98882.98
2018-06-23T04:46:15.075Z,98877.02
2018-06-23T04:48:44.471Z,98875.77
2018-06-23T04:51:13.803Z,98878.33
2018-06-23T04:53:46.645Z,98879.61
2018-06-23T04:56:16.754Z,98880.45
2018-06-23T04:58:46.085Z,98883.02
2018-06-23T05:01:15.390Z,98883.88
2018-06-23T05:03:44.956Z,98884.77
2018-06-23T05:06:14.271Z,98882.61
2018-06-23T05:08:43.607Z,98888.60
2018-06-23T05:11:12.961Z,98891.55
2018-06-23T05:13:42.292Z,98899.64
2018-06-23T05:16:11.604Z,98897.97
2018-06-23T05:18:40.916Z,98891.61
2018-06-23T05:21:10.309Z,98886.91
2018-06-23T05:23:39.656Z,98884.75
2018-06-23T05:26:09.021Z,98872.72
2018-06-23T05:28:38.343Z,98871.48
2018-06-23T05:31:07.711Z,98874.91
2018-06-23T05:33:37.045Z,98868.02
2018-06-23T05:36:06.403Z,98871.02
2018-06-23T05:38:35.724Z,98868.86
2018-06-23T05:41:05.045Z,98867.17
2018-06-23T05:43:34.431Z,98866.75
2018-06-23T05:46:03.964Z,98874.47
2018-06-23T05:48:33.288Z,98870.59
2018-06-23T05:51:02.630Z,98864.57
2018-06-23T05:53:31.943Z,98859.42
2018-06-23T05:56:01.272Z,98858.52
2018-06-23T05:58:30.684Z,98870.09
2018-06-23T06:01:00.016Z,98863.19
2018-06-23T06:03:29.345Z,98865.80
2018-06-23T06:05:58.669Z,98880.02
2018-06-23T06:08:27.988Z,98873.14
2018-06-23T06:10:57.392Z,98880.83
2018-06-23T06:13:26.708Z,98875.17
2018-06-23T06:15:56.072Z,98870.39
2018-06-23T06:18:25.387Z,98874.52
2018-06-23T06:20:54.740Z,98882.28
2018-06-23T06:23:24.069Z,98880.34
2018-06-23T06:25:53.408Z,98886.82
2018-06-23T06:28:22.720Z,98882.13
2018-06-23T06:30:52.079Z,98877.88
2018-06-23T06:33:21.427Z,98881.28
2018-06-23T06:35:50.757Z,98870.03
2018-06-23T06:38:20.138Z,98866.83
2018-06-23T06:40:52.945Z,98872.73
2018-06-23T06:43:22.312Z,98872.56
2018-06-23T06:45:51.633Z,98884.56
2018-06-23T06:48:21.041Z,98887.20
2018-06-23T06:50:50.418Z,98888.78
2018-06-23T06:53:19.759Z,98892.84
2018-06-23T06:55:49.092Z,98888.14
2018-06-23T06:58:18.860Z,98892.83
2018-06-23T07:00:48.186Z,98892.83
2018-06-23T07:03:17.516Z,98885.56
2018-06-23T07:05:46.874Z,98887.64
2018-06-23T07:08:16.419Z,98875.94
2018-06-23T07:10:45.743Z,98885.41
2018-06-23T07:13:15.069Z,98881.20
2018-06-23T07:15:44.384Z,98879.06
2018-06-23T07:18:13.749Z,98881.64
2018-06-23T07:20:43.153Z,98888.94
2018-06-23T07:23:12.525Z,98879.49
2018-06-23T07:25:41.855Z,98876.44
2018-06-23T07:28:11.165Z,98882.02
2018-06-23T07:30:40.565Z,98871.66
2018-06-23T07:33:09.849Z,98871.79
2018-06-23T07:35:39.241Z,98879.05
2018-06-23T07:38:08.636Z,98874.98
2018-06-23T07:40:38.038Z,98875.39
2018-06-23T07:43:07.384Z,98878.43
2018-06-23T07:45:36.740Z,98875.36
2018-06-23T07:48:06.136Z,98874.28
2018-06-23T07:50:35.507Z,98876.61
2018-06-23T07:53:04.949Z,98874.06
2018-06-23T07:55:34.290Z,98873.40
2018-06-23T07:58:04.075Z,98874.34
2018-06-23T08:00:33.581Z,98879.28
2018-06-23T08:03:02.945Z,98880.73
2018-06-23T08:05:32.315Z,98870.00
2018-06-23T08:08:01.686Z,98860.81
2018-06-23T08:10:30.977Z,98855.26
2018-06-23T08:13:00.304Z,98852.08
2018-06-23T08:15:29.648Z,98860.90
2018-06-23T08:17:58.997Z,98862.05
2018-06-23T08:20:28.311Z,98871.95
2018-06-23T08:22:57.665Z,98869.75
2018-06-23T08:25:27.033Z,98876.88
2018-06-23T08:27:56.485Z,98879.87
2018-06-23T08:30:25.891Z,98879.93
2018-06-23T08:32:55.224Z,98869.61
2018-06-23T08:35:24.551Z,98875.09
2018-06-23T08:37:53.976Z,98873.50
2018-06-23T08:40:23.241Z,98872.19
2018-06-23T08:42:52.610Z,98877.28
2018-06-23T08:45:21.950Z,98882.94
2018-06-23T08:47:51.289Z,98883.74
2018-06-23T08:50:20.744Z,98874.23
2018-06-23T08:52:50.117Z,98875.44
2018-06-23T08:55:19.432Z,98874.63
2018-06-23T08:57:48.820Z,98873.72
2018-06-23T09:00:18.152Z,98877.89
2018-06-23T09:02:47.577Z,98879.35
2018-06-23T09:05:16.894Z,98885.83
2018-06-23T09:07:46.197Z,98884.59
2018-06-23T09:10:15.267Z,98889.69
2018-06-23T09:12:44.578Z,98884.05
2018-06-23T09:15:14.751Z,98887.95
2018-06-23T09:17:44.361Z,98895.58
2018-06-23T09:20:13.695Z,98894.55
2018-06-23T09:22:43.079Z,98896.91
2018-06-23T09:25:12.428Z,98896.11
2018-06-23T09:27:41.755Z,98891.59
2018-06-23T09:30:11.254Z,98887.29
2018-06-23T09:32:40.612Z,98887.44
2018-06-23T09:35:09.923Z,98890.25
2018-06-23T09:37:39.249Z,98890.64
2018-06-23T09:40:08.584Z,98891.39
2018-06-23T09:42:37.911Z,98894.03
2018-06-23T09:45:07.259Z,98896.46
2018-06-23T09:47:36.564Z,98908.45
2018-06-23T09:50:06.152Z,98912.11
2018-06-23T09:52:35.483Z,98919.04
2018-06-23T09:55:04.819Z,98919.73
2018-06-23T09:57:34.133Z,98906.36
2018-06-23T10:00:03.539Z,98913.69
2018-06-23T10:02:32.875Z,98907.28
2018-06-23T10:05:02.220Z,98905.93
2018-06-23T10:07:31.555Z,98896.75
2018-06-23T10:10:00.930Z,98891.72
2018-06-23T10:12:30.276Z,98887.09
2018-06-23T10:14:59.600Z,98882.12
2018-06-23T10:17:28.923Z,98879.47
2018-06-23T10:19:58.253Z,98879.51
2018-06-23T10:22:27.572Z,98866.16
2018-06-23T10:24:56.936Z,98866.16
2018-06-23T10:27:26.320Z,98865.97
2018-06-23T10:29:55.656Z,98864.78
2018-06-23T10:32:24.995Z,98862.77
2018-06-23T10:34:54.389Z,98862.17
2018-06-23T10:37:23.724Z,98861.45
2018-06-23T10:39:53.092Z,98855.73
2018-06-23T10:42:22.422Z,98865.48
2018-06-23T10:44:51.796Z,98853.52
2018-06-23T10:47:21.145Z,98848.77
2018-06-23T10:49:50.844Z,98853.68
2018-06-23T10:52:20.179Z,98852.41
2018-06-23T10:54:49.524Z,98855.53
2018-06-23T10:57:18.900Z,98867.59
2018-06-23T10:59:48.236Z,98868.07
2018-06-23T11:02:17.720Z,98864.07
2018-06-23T11:04:47.180Z,98867.78
2018-06-23T11:07:16.591Z,98863.70
2018-06-23T11:09:45.896Z,98860.75
2018-06-23T11:12:15.224Z,98860.11
2018-06-23T11:14:44.640Z,98850.41
2018-06-23T11:17:13.980Z,98852.89
2018-06-23T11:19:43.299Z,98842.85
2018-06-23T11:22:12.690Z,98847.64
2018-06-23T11:24:42.005Z,98851.47
2018-06-23T11:27:11.340Z,98854.77
2018-06-23T11:29:40.696Z,98837.14
2018-06-23T11:32:10.026Z,98830.00
2018-06-23T11:34:39.331Z,98828.88
2018-06-23T11:37:08.757Z,98834.23
2018-06-23T11:39:38.107Z,98831.12
2018-06-23T11:42:07.523Z,98834.35
2018-06-23T11:44:36.872Z,98834.41
2018-06-23T11:47:06.509Z,98832.53
2018-06-23T11:49:35.815Z,98833.00
2018-06-23T11:52:05.247Z,98828.11
2018-06-23T11:54:34.515Z,98834.26
2018-06-23T11:57:07.640Z,98829.25
2018-06-23T11:59:36.968Z,98822.44
2018-06-23T12:02:06.416Z,98819.07
2018-06-23T12:04:35.782Z,98815.91
2018-06-23T12:07:05.132Z,98810.06
2018-06-23T12:09:34.520Z,98820.70
2018-06-23T12:12:03.891Z,98817.95
2018-06-23T12:14:33.200Z,98821.66
2018-06-23T12:17:02.540Z,98821.00
2018-06-23T12:19:31.876Z,98821.71
2018-06-23T12:22:01.208Z,98808.88
2018-06-23T12:24:30.528Z,98802.47
2018-06-23T12:26:59.850Z,98802.89
2018-06-23T12:29:29.194Z,98797.56
2018-06-23T12:31:58.495Z,98796.98
2018-06-23T12:34:27.836Z,98795.69
2018-06-23T12:36:57.165Z,98787.52
2018-06-23T12:39:26.472Z,98791.73
2018-06-23T12:41:55.828Z,98789.87
2018-06-23T12:44:25.163Z,98798.30
2018-06-23T12:46:54.472Z,98790.56
2018-06-23T12:49:23.821Z,98797.91
2018-06-23T12:51:53.135Z,98800.52
2018-06-23T12:54:22.446Z,98790.35
2018-06-23T12:56:51.789Z,98785.67
2018-06-23T12:59:21.100Z,98789.41
2018-06-23T13:01:50.420Z,98792.74
2018-06-23T13:04:19.846Z,98792.53
2018-06-23T13:06:49.315Z,98787.94
2018-06-23T13:09:18.636Z,98782.21
2018-06-23T13:11:48.032Z,98787.09
2018-06-23T13:14:17.355Z,98788.72
2018-06-23T13:16:46.717Z,98774.33
2018-06-23T13:19:16.051Z,98775.02
2018-06-23T13:21:45.372Z,98773.90
2018-06-23T13:24:14.684Z,98777.30
2018-06-23T13:26:43.850Z,98769.22
2018-06-23T13:29:14.048Z,98773.55
2018-06-23T13:31:43.392Z,98773.33
2018-06-23T13:34:12.752Z,98770.84
2018-06-23T13:36:42.175Z,98764.56
2018-06-23T13:39:11.556Z,98771.22
2018-06-23T13:41:40.893Z,98766.87
2018-06-23T13:44:10.253Z,98766.70
2018-06-23T13:46:39.612Z,98772.20
2018-06-23T13:49:08.944Z,98778.06
2018-06-23T13:51:38.280Z,98770.03
2018-06-23T13:54:07.608Z,98768.13
2018-06-23T13:56:36.992Z,98764.23
2018-06-23T13:59:06.320Z,98773.77
2018-06-23T14:01:35.683Z,98772.36
2018-06-23T14:04:05.024Z,98766.64
2018-06-23T14:06:34.346Z,98769.98
2018-06-23T14:09:03.957Z,98768.72
2018-06-23T14:11:33.296Z,98752.98
2018-06-23T14:14:02.631Z,98755.30
2018-06-23T14:16:31.972Z,98763.83
2018-06-23T14:19:01.288Z,98751.17
2018-06-23T14:21:30.619Z,98761.98
2018-06-23T14:24:00.065Z,98746.54
2018-06-23T14:26:29.474Z,98737.44
2018-06-23T14:28:59.109Z,98745.70
2018-06-23T14:31:28.594Z,98741.25
2018-06-23T14:33:57.796Z,98731.98
2018-06-23T14:36:27.152Z,98732.25
2018-06-23T14:38:56.597Z,98734.16
2018-06-23T14:41:25.912Z,98741.73
2018-06-23T14:43:55.256Z,98738.84
2018-06-23T14:46:24.596Z,98745.41
2018-06-23T14:48:53.945Z,98733.98
2018-06-23T14:51:23.300Z,98747.77
2018-06-23T14:53:52.707Z,98733.00
2018-06-23T14:56:22.018Z,98732.17
2018-06-23T14:58:51.383Z,98729.11
2018-06-23T15:01:20.708Z,98734.23
2018-06-23T15:03:50.060Z,98737.60
2018-06-23T15:06:19.433Z,98737.92
2018-06-23T15:09:05.876Z,98739.74
2018-06-23T15:11:52.172Z,98740.28
2018-06-23T15:14:21.481Z,98731.19
2018-06-23T15:16:50.902Z,98738.75
2018-06-23T15:19:20.276Z,98728.12
2018-06-23T15:21:49.796Z,98727.28
2018-06-23T15:24:19.134Z,98729.81
2018-06-23T15:26:48.537Z,98726.77
2018-06-23T15:29:17.899Z,98723.65
2018-06-23T15:31:47.248Z,98722.80
2018-06-23T15:34:16.576Z,98714.45
2018-06-23T15:36:45.909Z,98716.52
2018-06-23T15:39:15.321Z,98709.58
2018-06-23T15:41:49.860Z,98718.05
2018-06-23T15:44:19.265Z,98708.93
2018-06-23T15:46:48.709Z,98709.34
2018-06-23T15:49:18.057Z,98705.19
2018-06-23T15:51:47.433Z,98700.51
2018-06-23T15:54:16.976Z,98705.93
2018-06-23T15:56:46.427Z,98709.48
2018-06-23T15:59:15.778Z,98704.84
2018-06-23T16:01:45.104Z,98700.65
2018-06-23T16:04:14.481Z,98703.09
2018-06-23T16:06:43.945Z,98695.84
2018-06-23T16:09:14.008Z,98691.59
2018-06-23T16:11:43.560Z,98693.09
2018-06-23T16:14:12.928Z,98693.83
2018-06-23T16:16:42.278Z,98688.84
2018-06-23T16:19:11.604Z,98701.62
2018-06-23T16:21:40.949Z,98695.62
2018-06-23T16:24:10.312Z,98697.78
2018-06-23T16:26:39.642Z,98698.09
2018-06-23T16:29:08.995Z,98666.39
2018-06-23T16:31:38.331Z,98692.93
2018-06-23T16:34:07.703Z,98690.22
2018-06-23T16:36:37.044Z,98688.18
2018-06-23T16:39:09.519Z,98687.69
2018-06-23T16:41:38.876Z,98692.23
2018-06-23T16:44:08.510Z,98676.45
2018-06-23T16:46:38.241Z,98684.05
2018-06-23T16:49:07.563Z,98673.71
2018-06-23T16:51:36.888Z,98680.71
2018-06-23T16:54:06.240Z,98677.49
2018-06-23T16:56:35.591Z,98680.69
2018-06-23T16:59:04.896Z,98673.55
2018-06-23T17:01:34.597Z,98673.92
2018-06-23T17:04:03.953Z,98678.16
2018-06-23T17:06:33.243Z,98677.50
2018-06-23T17:09:02.644Z,98682.91
2018-06-23T17:11:32.059Z,98682.27
2018-06-23T17:14:01.400Z,98682.27
2018-06-23T17:16:30.776Z,98684.58
2018-06-23T17:19:00.117Z,98681.32
2018-06-23T17:21:29.472Z,98684.29
2018-06-23T17:23:58.890Z,98679.35
2018-06-23T17:26:28.236Z,98680.69
2018-06-23T17:28:57.561Z,98688.86
2018-06-23T17:31:26.917Z,98671.89
2018-06-23T17:33:56.269Z,98687.58
2018-06-23T17:36:25.621Z,98686.16
2018-06-23T17:38:54.971Z,98686.50
2018-06-23T17:41:24.332Z,98684.61
2018-06-23T17:43:53.420Z,98681.70
2018-06-23T17:46:22.759Z,98681.25
2018-06-23T17:48:52.101Z,98682.78
2018-06-23T17:51:21.447Z,98684.86
2018-06-23T17:53:50.796Z,98684.26
2018-06-23T17:56:20.148Z,98693.91
2018-06-23T17:58:49.492Z,98682.85
2018-06-23T18:01:18.889Z,98688.05
2018-06-23T18:03:48.256Z,98681.34
2018-06-23T18:06:17.618Z,98689.78
2018-06-23T18:08:46.979Z,98692.75
2018-06-23T18:11:16.511Z,98692.81
2018-06-23T18:13:45.813Z,98687.25
2018-06-23T18:16:15.161Z,98693.02
2018-06-23T18:18:44.520Z,98687.91
2018-06-23T18:21:14.002Z,98685.34
2018-06-23T18:23:43.316Z,98686.33
2018-06-23T18:26:12.679Z,98688.41
2018-06-23T18:28:42.059Z,98696.02
2018-06-23T18:31:11.386Z,98700.51
2018-06-23T18:33:40.738Z,98698.42
2018-06-23T18:36:10.033Z,98701.48
2018-06-23T18:38:39.360Z,98698.90
2018-06-23T18:41:08.674Z,98695.48
2018-06-23T18:43:38.013Z,98691.97
2018-06-23T18:46:07.332Z,98697.16
2018-06-23T18:48:36.640Z,98696.03
2018-06-23T18:51:06.057Z,98695.95
2018-06-23T18:53:35.385Z,98702.18
2018-06-23T18:56:05.056Z,98703.27
2018-06-23T18:58:34.400Z,98699.14
2018-06-23T19:01:03.776Z,98694.80
2018-06-23T19:03:33.152Z,98701.39
2018-06-23T19:06:02.580Z,98700.86
2018-06-23T19:08:31.999Z,98701.08
2018-06-23T19:11:01.399Z,98697.63
2018-06-23T19:13:30.744Z,98694.76
2018-06-23T19:16:00.086Z,98693.77
2018-06-23T19:18:29.412Z,98697.54
2018-06-23T19:20:58.776Z,98702.66
2018-06-23T19:23:28.134Z,98698.68
2018-06-23T19:25:57.468Z,98702.23
2018-06-23T19:28:26.813Z,98702.56
2018-06-23T19:30:56.164Z,98699.83
2018-06-23T19:33:25.512Z,98706.84
2018-06-23T19:35:54.856Z,98707.38
2018-06-23T19:38:24.198Z,98701.79
2018-06-23T19:40:53.554Z,98703.42
2018-06-23T19:43:22.868Z,98706.47
2018-06-23T19:45:52.228Z,98707.09
2018-06-23T19:48:21.567Z,98706.79
2018-06-23T19:50:50.883Z,98705.20
2018-06-23T19:53:20.200Z,98708.20
2018-06-23T19:55:49.572Z,98715.41
2018-06-23T19:58:18.883Z,98716.74
2018-06-23T20:00:48.232Z,98716.30
2018-06-23T20:03:17.608Z,98724.41
2018-06-23T20:05:46.949Z,98718.55
2018-06-23T20:08:16.273Z,98721.14
2018-06-23T20:10:45.992Z,98724.02
2018-06-23T20:13:15.314Z,98723.77
2018-06-23T20:15:44.639Z,98723.48
2018-06-23T20:18:14.012Z,98725.67
2018-06-23T20:20:43.360Z,98729.45
2018-06-23T20:23:12.699Z,98720.73
2018-06-23T20:25:42.040Z,98720.16
2018-06-23T20:28:11.379Z,98729.45
2018-06-23T20:30:40.752Z,98737.12
2018-06-23T20:33:10.105Z,98735.02
2018-06-23T20:35:39.488Z,98731.19
2018-06-23T20:38:08.824Z,98734.57
2018-06-23T20:40:38.183Z,98730.92
2018-06-23T20:43:07.560Z,98732.39
2018-06-23T20:45:36.925Z,98735.59
2018-06-23T20:48:06.275Z,98734.21
2018-06-23T20:50:35.591Z,98730.16
2018-06-23T20:53:04.979Z,98728.60
2018-06-23T20:55:34.316Z,98727.80
2018-06-23T20:58:03.640Z,98725.33
2018-06-23T21:00:32.981Z,98728.53
2018-06-23T21:03:02.314Z,98726.98
2018-06-23T21:05:31.640Z,98732.48
2018-06-23T21:08:00.979Z,98735.06
2018-06-23T21:10:45.210Z,98735.23
2018-06-23T21:13:14.551Z,98736.77
2018-06-23T21:15:43.860Z,98729.95
2018-06-23T21:18:13.204Z,98728.69
2018-06-23T21:20:42.543Z,98734.91
2018-06-23T21:23:11.858Z,98726.98
2018-06-23T21:25:41.208Z,98724.73
2018-06-23T21:28:10.712Z,98719.27
2018-06-23T21:30:39.921Z,98718.78
2018-06-23T21:33:09.326Z,98715.80
2018-06-23T21:35:38.581Z,98715.23
2018-06-23T21:38:07.920Z,98711.97
2018-06-23T21:40:37.261Z,98715.47
2018-06-23T21:43:06.714Z,98718.08
2018-06-23T21:45:36.003Z,98719.50
2018-06-23T21:48:06.557Z,98716.62
2018-06-23T21:50:35.954Z,98721.49
2018-06-23T21:56:25.960Z,98716.03
2018-06-23T21:58:55.311Z,98719.63
2018-06-23T22:01:24.633Z,98714.94
2018-06-23T22:03:53.981Z,98713.36
2018-06-23T22:06:23.337Z,98708.27
2018-06-23T22:08:52.665Z,98712.06
2018-06-23T22:11:22.210Z,98713.95
2018-06-23T22:13:51.546Z,98708.41
2018-06-23T22:16:20.852Z,98714.80
2018-06-23T22:18:50.233Z,98710.19
2018-06-23T22:21:19.604Z,98706.81
2018-06-23T22:23:48.943Z,98710.27
2018-06-23T22:26:18.308Z,98709.36
2018-06-23T22:28:47.619Z,98711.12
2018-06-23T22:31:16.955Z,98718.03
2018-06-23T22:33:46.328Z,98717.23
2018-06-23T22:36:15.644Z,98719.36
2018-06-23T22:38:45.041Z,98717.59
2018-06-23T22:41:14.384Z,98721.06
2018-06-23T22:43:43.708Z,98722.42
2018-06-23T22:46:13.100Z,98723.29
2018-06-23T22:48:42.455Z,98725.00
2018-06-23T22:51:11.759Z,98724.14
2018-06-23T22:53:41.089Z,98727.59
2018-06-23T22:56:10.447Z,98723.31
2018-06-23T22:58:39.773Z,98722.53
2018-06-23T23:01:09.113Z,98727.27
2018-06-23T23:03:38.419Z,98726.49
2018-06-23T23:06:07.820Z,98722.28
2018-06-23T23:08:37.228Z,98725.70
2018-06-23T23:11:06.624Z,98731.33
2018-06-23T23:13:35.947Z,98726.20
2018-06-23T23:16:05.694Z,98725.39
2018-06-23T23:18:35.013Z,98722.37
2018-06-23T23:21:04.328Z,98723.23
2018-06-23T23:23:33.653Z,98724.55
2018-06-23T23:26:02.736Z,98723.67
2018-06-23T23:28:32.098Z,98724.95
2018-06-23T23:31:01.588Z,98720.23
2018-06-23T23:33:30.893Z,98714.66
2018-06-23T23:36:00.232Z,98717.20
2018-06-23T23:38:29.576Z,98712.05
2018-06-23T23:40:58.890Z,98709.48
2018-06-23T23:43:28.215Z,98706.88
2018-06-23T23:45:57.552Z,98705.16
2018-06-23T23:48:26.913Z,98703.02
2018-06-23T23:50:56.243Z,98700.05
2018-06-23T23:53:25.576Z,98696.21
2018-06-23T23:55:54.915Z,98697.94
2018-06-23T23:58:24.234Z,98696.70
